createdAt,value
2022-10-02T00:02:47.326Z,10.98
2022-10-02T00:08:57.050Z,10.83
2022-10-02T00:15:13.428Z,10.83
2022-10-02T00:21:45.388Z,10.74
2022-10-02T00:28:16.781Z,10.68
2022-10-02T00:34:49.416Z,10.45
2022-10-02T00:41:43.392Z,10.47
2022-10-02T00:55:48.154Z,10.80
2022-10-02T01:02:14.147Z,10.58
2022-10-02T01:08:17.394Z,10.63
2022-10-02T01:14:19.477Z,10.69
2022-10-02T01:20:41.634Z,10.78
2022-10-02T01:33:02.683Z,11.15
2022-10-02T01:39:04.927Z,11.11
2022-10-02T01:45:08.972Z,11.12
2022-10-02T01:51:22.607Z,11.14
2022-10-02T01:57:46.462Z,10.91
2022-10-02T02:11:23.878Z,10.94
2022-10-02T02:18:03.316Z,10.93
2022-10-02T02:24:24.554Z,10.89
2022-10-02T02:30:30.161Z,11.15
2022-10-02T02:36:44.850Z,11.30
2022-10-02T02:42:58.533Z,11.39
2022-10-02T02:49:11.608Z,11.39
2022-10-02T02:55:20.119Z,11.56
2022-10-02T03:01:22.576Z,11.54
2022-10-02T03:07:24.735Z,11.60
2022-10-02T03:14:46.801Z,11.54
2022-10-02T03:21:21.641Z,11.76
2022-10-02T03:27:43.117Z,11.75
2022-10-02T03:33:50.144Z,11.67
2022-10-02T03:39:52.601Z,11.75
2022-10-02T03:45:54.805Z,11.82
2022-10-02T03:51:56.681Z,11.97
2022-10-02T03:58:04.574Z,11.76
2022-10-02T04:04:17.733Z,11.86
2022-10-02T04:10:57.571Z,11.77
2022-10-02T04:17:20.831Z,11.69
2022-10-02T04:23:39.748Z,11.85
2022-10-02T04:30:06.835Z,11.80
2022-10-02T04:36:38.548Z,11.98
2022-10-02T04:43:07.822Z,12.00
2022-10-02T04:50:04.281Z,11.79
2022-10-02T04:56:09.185Z,12.00
2022-10-02T05:02:34.706Z,11.92
2022-10-02T05:09:48.127Z,11.97
2022-10-02T05:16:29.340Z,11.93
2022-10-02T05:22:55.099Z,11.86
2022-10-02T05:29:21.817Z,11.98
2022-10-02T05:35:35.572Z,12.01
2022-10-02T05:42:02.559Z,11.95
2022-10-02T05:49:14.255Z,12.01
2022-10-02T05:55:28.107Z,11.99
2022-10-02T06:01:47.591Z,12.00
2022-10-02T06:07:57.829Z,12.00
2022-10-02T06:14:10.394Z,12.10
2022-10-02T06:20:18.152Z,12.34
2022-10-02T06:27:04.561Z,12.25
2022-10-02T06:33:09.323Z,12.34
2022-10-02T06:46:49.394Z,12.64
2022-10-02T06:53:35.215Z,12.66
2022-10-02T07:00:16.480Z,12.94
2022-10-02T07:07:16.074Z,13.15
2022-10-02T07:13:36.582Z,13.36
2022-10-02T07:19:50.432Z,13.73
2022-10-02T07:27:01.222Z,13.71
2022-10-02T07:33:30.230Z,13.72
2022-10-02T07:40:13.453Z,13.90
2022-10-02T07:46:39.375Z,14.14
2022-10-02T07:53:13.463Z,14.06
2022-10-02T07:59:41.578Z,14.24
2022-10-02T08:05:54.569Z,14.51
2022-10-02T08:12:43.094Z,14.68
2022-10-02T08:18:52.795Z,15.45
2022-10-02T08:25:06.083Z,15.75
2022-10-02T08:31:13.601Z,15.62
2022-10-02T08:45:53.272Z,15.35
2022-10-02T08:58:58.078Z,15.51
2022-10-02T09:05:46.997Z,15.86
2022-10-02T09:12:30.431Z,16.70
2022-10-02T09:19:05.454Z,16.38
2022-10-02T09:25:22.539Z,16.32
2022-10-02T09:32:09.548Z,15.80
2022-10-02T09:38:27.192Z,15.92
2022-10-02T09:45:01.419Z,15.85
2022-10-02T09:51:52.677Z,16.33
2022-10-02T09:58:44.771Z,16.71
2022-10-02T10:05:57.899Z,17.53
2022-10-02T10:12:37.490Z,16.69
2022-10-02T10:19:15.707Z,16.34
2022-10-02T10:26:07.129Z,16.08
2022-10-02T10:32:30.980Z,16.01
2022-10-02T10:39:20.305Z,16.04
2022-10-02T10:46:06.419Z,16.04
2022-10-02T10:52:25.943Z,16.33
2022-10-02T10:59:09.135Z,16.17
2022-10-02T11:05:42.992Z,16.53
2022-10-02T11:12:23.165Z,18.49
2022-10-02T11:18:42.930Z,19.42
2022-10-02T11:25:40.883Z,19.75
2022-10-02T11:32:44.254Z,20.41
2022-10-02T11:39:15.803Z,18.78
2022-10-02T11:45:38.439Z,17.90
2022-10-02T11:52:06.100Z,17.46
2022-10-02T11:58:45.088Z,17.12
2022-10-02T12:05:31.512Z,17.06
2022-10-02T12:12:29.260Z,16.52
2022-10-02T12:25:46.428Z,16.24
2022-10-02T12:31:54.091Z,16.05
2022-10-02T12:38:16.838Z,15.95
2022-10-02T12:45:16.447Z,15.46
2022-10-02T12:51:44.192Z,15.27
2022-10-02T12:58:25.209Z,16.26
2022-10-02T13:04:34.975Z,15.95
2022-10-02T13:10:57.350Z,15.63
2022-10-02T13:17:17.798Z,15.46
2022-10-02T13:23:58.866Z,15.42
2022-10-02T13:30:24.144Z,16.40
2022-10-02T13:36:55.687Z,19.23
2022-10-02T13:43:34.498Z,20.62
2022-10-02T13:56:36.727Z,20.62
2022-10-02T14:03:24.505Z,18.57
2022-10-02T14:09:58.037Z,18.43
2022-10-02T14:16:50.239Z,19.79
2022-10-02T14:23:47.546Z,22.28
2022-10-02T14:36:20.892Z,25.61
2022-10-02T14:42:48.189Z,26.34
2022-10-02T14:49:32.069Z,25.84
2022-10-02T14:55:56.900Z,22.82
2022-10-02T15:02:13.984Z,20.45
2022-10-02T15:08:48.049Z,18.00
2022-10-02T15:15:15.968Z,16.30
2022-10-02T15:21:38.039Z,15.14
2022-10-02T15:28:12.088Z,14.59
2022-10-02T15:34:23.625Z,14.20
2022-10-02T15:40:54.993Z,14.02
2022-10-02T15:55:22.428Z,13.85
2022-10-02T16:01:55.499Z,15.55
2022-10-02T16:08:19.504Z,16.82
2022-10-02T16:15:02.738Z,16.86
2022-10-02T16:21:55.260Z,16.83
2022-10-02T16:28:41.361Z,16.62
2022-10-02T16:35:12.477Z,15.46
2022-10-02T16:41:49.732Z,14.69
2022-10-02T16:48:15.088Z,14.47
2022-10-02T16:54:35.419Z,14.25
2022-10-02T17:00:59.467Z,14.04
2022-10-02T17:07:15.615Z,13.95
2022-10-02T17:14:04.899Z,13.90
2022-10-02T17:20:27.322Z,13.62
2022-10-02T17:27:15.094Z,13.45
2022-10-02T17:33:22.305Z,13.27
2022-10-02T17:40:05.089Z,13.07
2022-10-02T17:46:18.931Z,12.93
2022-10-02T17:53:03.540Z,12.74
2022-10-02T17:59:34.747Z,12.68
2022-10-02T18:06:26.921Z,12.44
2022-10-02T18:12:56.544Z,12.56
2022-10-02T18:19:48.865Z,12.14
2022-10-02T18:33:33.212Z,11.79
2022-10-02T18:40:15.519Z,11.67
2022-10-02T18:46:32.593Z,11.41
2022-10-02T19:00:15.607Z,11.21
2022-10-02T19:06:34.517Z,11.16
2022-10-02T19:12:42.980Z,11.14
2022-10-02T19:18:46.336Z,11.04
2022-10-02T19:25:35.161Z,10.91
2022-10-02T19:31:39.918Z,10.96
2022-10-02T19:37:54.961Z,11.00
2022-10-02T19:44:03.281Z,10.84
2022-10-02T19:50:08.541Z,10.77
2022-10-02T19:56:26.344Z,10.76
2022-10-02T20:02:36.665Z,10.65
2022-10-02T20:09:19.306Z,10.65
2022-10-02T20:16:18.249Z,10.76
2022-10-02T20:22:50.116Z,10.66
2022-10-02T20:29:03.301Z,10.64
2022-10-02T20:35:45.094Z,10.64
2022-10-02T20:42:35.627Z,10.80
2022-10-02T20:49:13.753Z,10.94
2022-10-02T20:56:12.484Z,10.91
2022-10-02T21:02:59.849Z,10.83
2022-10-02T21:09:34.175Z,10.80
2022-10-02T21:15:52.167Z,10.73
2022-10-02T21:22:02.941Z,10.50
2022-10-02T21:28:41.365Z,10.25
2022-10-02T21:35:19.219Z,10.26
2022-10-02T21:41:49.074Z,10.14
2022-10-02T21:48:35.054Z,10.57
2022-10-02T22:01:57.460Z,10.81
2022-10-02T22:08:17.145Z,10.97
2022-10-02T22:14:40.763Z,10.86
2022-10-02T22:21:21.945Z,11.01
2022-10-02T22:28:03.278Z,11.03
2022-10-02T22:34:10.923Z,10.97
2022-10-02T22:40:28.070Z,10.91
2022-10-02T22:46:47.618Z,10.95
2022-10-02T22:53:31.002Z,10.87
2022-10-02T23:00:11.058Z,10.81
2022-10-02T23:06:31.666Z,10.80
2022-10-02T23:12:59.256Z,10.71
2022-10-02T23:19:28.446Z,10.62
2022-10-02T23:26:13.184Z,10.51
2022-10-02T23:32:50.945Z,10.62
2022-10-02T23:39:01.825Z,10.78
2022-10-02T23:45:27.214Z,10.77
2022-10-02T23:52:35.051Z,10.67
2022-10-02T23:58:55.740Z,10.91
